Time;durP1;ratioP1;P1;durP2;ratioP2;P2;SDS_P1;SDS_P2;PMS_P1;PMS_P2;Temp;Humidity;BMP_temperature;BMP_pressure;BME280_temperature;BME280_humidity;BME280_pressure;Samples;Min_cycle;Max_cycle;Signal;HPM_P1;HPM_P2
2023/10/31 00:02:00;;;;;;;0.10;0.10;;;;;;;12.98;73.69;99125.06;15664919;28;20045;-52
2023/10/31 00:09:33;;;;;;;0.00;0.00;;;;;;;13.02;73.63;99134.25;15655732;28;20060;-51
2023/10/31 00:17:20;;;;;;;0.38;0.38;;;;;;;13.00;74.09;99128.28;15660739;28;20037;-52
2023/10/31 00:24:54;;;;;;;0.00;0.00;;;;;;;12.98;73.14;99076.59;15648368;28;20053;-53
2023/10/31 00:32:28;;;;;;;0.00;0.00;;;;;;;13.28;72.93;99100.09;15644187;28;20037;-55
2023/10/31 00:40:02;;;;;;;0.82;0.52;;;;;;;13.12;72.95;99048.06;15637649;28;20518;-52
2023/10/31 00:47:37;;;;;;;0.25;0.10;;;;;;;13.40;73.17;99089.06;15633289;28;20052;-51
2023/10/31 00:55:13;;;;;;;0.30;0.30;;;;;;;13.19;73.69;99096.28;15645885;28;20047;-52
2023/10/31 01:02:48;;;;;;;1.23;0.30;;;;;;;13.17;74.12;99079.59;15630962;28;20045;-53
2023/10/31 01:10:22;;;;;;;0.85;0.43;;;;;;;13.11;74.73;99062.59;15622256;28;20040;-52
2023/10/31 01:17:57;;;;;;;0.43;0.43;;;;;;;12.82;75.82;99026.47;15645361;28;20563;-51
2023/10/31 01:25:30;;;;;;;0.10;0.10;;;;;;;13.14;74.88;99045.09;15662786;28;20058;-52
2023/10/31 01:33:05;;;;;;;0.20;0.20;;;;;;;12.90;76.50;99067.13;15643506;28;20045;-51
2023/10/31 01:40:38;;;;;;;0.20;0.17;;;;;;;12.61;77.44;99052.53;15675718;28;20064;-51
2023/10/31 01:48:13;;;;;;;;;;;;;;;12.55;78.47;99032.88;15647445;28;20124;-53
2023/10/31 01:55:47;;;;;;;0.20;0.20;;;;;;;12.64;77.98;98992.81;15647493;28;20023;-52
2023/10/31 02:03:22;;;;;;;0.55;0.55;;;;;;;12.67;76.43;98968.81;15633646;28;20034;-54
2023/10/31 02:10:55;;;;;;;0.00;0.00;;;;;;;12.60;77.06;98970.19;15640089;28;20454;-52
2023/10/31 02:18:30;;;;;;;1.08;0.77;;;;;;;12.84;76.99;98941.66;15638051;28;20029;-54
2023/10/31 02:26:07;;;;;;;0.30;0.30;;;;;;;12.95;76.07;98972.88;15660546;28;20130;-52
2023/10/31 02:33:40;;;;;;;0.20;0.20;;;;;;;12.48;77.94;98981.97;15648356;28;20041;-51
2023/10/31 02:41:15;;;;;;;0.50;0.43;;;;;;;12.48;78.06;98954.25;15657400;28;20047;-51
2023/10/31 02:48:48;;;;;;;0.52;0.52;;;;;;;12.56;78.34;98961.81;15642415;28;20436;-53
2023/10/31 02:56:23;;;;;;;1.00;0.93;;;;;;;12.38;78.60;98944.28;15634032;28;20056;-52
2023/10/31 03:03:56;;;;;;;0.00;0.00;;;;;;;11.98;80.79;98943.13;15668140;28;20140;-52
2023/10/31 03:11:32;;;;;;;0.50;0.22;;;;;;;11.75;80.18;98904.00;15636119;28;20049;-53
2023/10/31 03:19:05;;;;;;;0.10;0.10;;;;;;;11.56;82.17;98940.44;15630495;28;20041;-52
2023/10/31 03:26:41;;;;;;;0.43;0.43;;;;;;;11.96;81.61;98945.25;15655440;28;20462;-52
2023/10/31 03:34:15;;;;;;;0.08;0.08;;;;;;;12.22;79.72;98929.22;15636235;28;20034;-50
2023/10/31 03:41:50;;;;;;;0.22;0.22;;;;;;;12.44;79.48;98953.19;15626810;28;20037;-52
2023/10/31 03:49:23;;;;;;;0.10;0.10;;;;;;;12.25;80.18;98953.66;15634378;28;20512;-51
2023/10/31 03:56:59;;;;;;;1.75;0.57;;;;;;;12.25;80.17;98956.38;15639806;28;20111;-51
2023/10/31 04:04:32;;;;;;;1.00;0.65;;;;;;;11.97;81.37;98971.06;15630945;28;20405;-53
2023/10/31 04:12:07;;;;;;;;;;;;;;;11.84;82.91;98954.59;15643727;28;20148;-50
2023/10/31 04:19:43;;;;;;;0.25;0.10;;;;;;;11.96;82.30;98949.81;15662446;28;19928;-51
2023/10/31 04:27:18;;;;;;;;;;;;;;;12.13;81.80;98955.81;15645703;28;20044;-49
2023/10/31 04:34:59;;;;;;;0.93;0.80;;;;;;;11.69;83.76;98931.91;15655500;28;19948;-49
2023/10/31 04:42:34;;;;;;;;;;;;;;;12.06;82.96;98941.78;15650752;28;20053;-49
2023/10/31 04:50:08;;;;;;;0.30;0.30;;;;;;;12.14;83.63;98943.16;15640103;28;19924;-49
2023/10/31 04:57:43;;;;;;;1.65;1.05;;;;;;;12.21;83.70;98935.63;15665681;28;20061;-49
2023/10/31 05:05:17;;;;;;;0.15;0.15;;;;;;;12.11;85.40;98932.91;15653118;28;20037;-51
2023/10/31 05:12:53;;;;;;;0.32;0.10;;;;;;;12.31;84.42;98938.38;15634349;28;20193;-49
2023/10/31 05:20:27;;;;;;;0.60;0.57;;;;;;;12.50;83.75;98938.69;15634662;22;20118;-47
2023/10/31 05:28:02;;;;;;;0.00;0.00;;;;;;;12.41;83.67;98929.50;15668917;28;20099;-46
2023/10/31 05:35:35;;;;;;;0.00;0.00;;;;;;;12.33;84.54;98933.53;15629761;28;20075;-52
2023/10/31 05:43:10;;;;;;;0.10;0.10;;;;;;;12.39;84.67;98934.34;15653600;28;20053;-46
2023/10/31 05:50:47;;;;;;;0.00;0.00;;;;;;;12.32;84.81;98936.50;15660748;28;20045;-48
2023/10/31 05:58:27;;;;;;;0.00;0.00;;;;;;;11.98;86.96;98942.28;15648291;28;20042;-47
2023/10/31 06:06:01;;;;;;;0.20;0.20;;;;;;;12.43;85.28;98955.06;15665933;28;20052;-46
2023/10/31 06:13:36;;;;;;;0.98;0.55;;;;;;;12.18;85.98;98955.81;15662036;28;20401;-51
2023/10/31 06:21:09;;;;;;;0.55;0.55;;;;;;;12.40;85.94;98950.22;15664893;28;20049;-49
2023/10/31 06:28:45;;;;;;;0.00;0.00;;;;;;;12.20;87.16;98960.91;15667796;28;20041;-50
2023/10/31 06:36:18;;;;;;;0.00;0.00;;;;;;;12.42;86.24;98976.88;15661996;28;20064;-50
2023/10/31 06:43:53;;;;;;;0.15;0.15;;;;;;;12.21;87.23;98989.44;15678267;28;20143;-49
2023/10/31 06:51:26;;;;;;;0.20;0.20;;;;;;;12.51;87.21;98984.16;15665417;28;20096;-47
2023/10/31 06:59:01;;;;;;;0.03;0.03;;;;;;;12.42;88.02;99006.47;15665051;28;20044;-50
2023/10/31 07:06:35;;;;;;;0.68;0.17;;;;;;;12.77;85.59;99019.19;15645727;28;20379;-48
2023/10/31 07:14:09;;;;;;;;;;;;;;;12.43;87.21;99035.78;15638454;28;20091;-48
2023/10/31 07:21:43;;;;;;;0.00;0.00;;;;;;;12.14;nan;99056.13;15647713;28;20353;-48
2023/10/31 07:29:17;;;;;;;;;;;;;;;11.70;84.09;99070.63;15674522;28;20037;-51
2023/10/31 07:36:51;;;;;;;0.00;0.00;;;;;;;11.58;84.75;99083.44;15650436;28;19931;-51
2023/10/31 07:44:25;;;;;;;;;;;;;;;11.86;83.98;99089.56;15640866;28;20592;-49
2023/10/31 07:51:59;;;;;;;0.10;0.10;;;;;;;11.53;84.25;99104.91;15649311;28;19928;-50
2023/10/31 07:59:35;;;;;;;0.00;0.00;;;;;;;11.57;81.54;99111.38;15665857;28;20037;-48
2023/10/31 08:07:08;;;;;;;0.00;0.00;;;;;;;11.52;80.59;99111.34;15670146;28;20053;-47
2023/10/31 08:14:44;;;;;;;0.00;0.00;;;;;;;11.36;78.27;99126.50;15660106;28;20052;-50
2023/10/31 08:22:18;;;;;;;0.00;0.00;;;;;;;11.66;77.71;99134.03;15660167;28;20050;-48
2023/10/31 08:29:53;;;;;;;1.35;0.75;;;;;;;12.12;75.48;99155.88;15610778;28;20059;-53
2023/10/31 08:37:26;;;;;;;0.00;0.00;;;;;;;12.59;72.42;99178.47;15664388;28;20067;-50
2023/10/31 08:45:11;;;;;;;0.00;0.00;;;;;;;12.29;71.17;99169.19;15663519;28;20053;-48
2023/10/31 08:52:45;;;;;;;0.00;0.00;;;;;;;11.92;72.61;99180.75;15647475;28;20053;-50
2023/10/31 09:00:20;;;;;;;0.00;0.00;;;;;;;12.45;71.06;99180.81;15654967;28;20037;-52
2023/10/31 09:07:53;;;;;;;0.00;0.00;;;;;;;12.07;70.87;99190.81;15627748;28;20328;-50
2023/10/31 09:15:28;;;;;;;0.52;0.30;;;;;;;12.59;68.84;99198.16;15668379;28;20041;-47
2023/10/31 09:23:02;;;;;;;0.00;0.00;;;;;;;13.01;67.07;99213.44;15634753;28;20049;-51
2023/10/31 09:30:36;;;;;;;0.00;0.00;;;;;;;12.92;67.49;99218.50;15652031;28;20045;-49
2023/10/31 09:38:13;;;;;;;0.00;0.00;;;;;;;12.62;68.11;99221.84;15680068;28;20040;-50
2023/10/31 09:45:52;;;;;;;0.15;0.15;;;;;;;12.26;68.94;99236.94;15680391;28;20110;-49
2023/10/31 09:53:28;;;;;;;0.00;0.00;;;;;;;12.67;69.05;99245.28;15672152;28;20549;-47
2023/10/31 10:01:02;;;;;;;0.00;0.00;;;;;;;12.40;66.83;99261.53;15677609;28;20064;-53
2023/10/31 10:08:38;;;;;;;0.00;0.00;;;;;;;12.52;68.31;99281.81;15660886;28;20033;-53
2023/10/31 10:16:14;;;;;;;0.00;0.00;;;;;;;12.23;67.40;99270.56;15655145;28;20051;-49
2023/10/31 10:23:49;;;;;;;0.00;0.00;;;;;;;12.23;67.64;99273.25;15666851;28;20045;-48
2023/10/31 10:31:26;;;;;;;0.25;0.20;;;;;;;12.50;66.89;99267.81;15667507;28;20042;-49
2023/10/31 10:39:00;;;;;;;0.00;0.00;;;;;;;12.98;64.85;99273.19;15648187;28;20033;-49
2023/10/31 10:46:36;;;;;;;0.00;0.00;;;;;;;12.54;66.45;99262.69;15652670;28;20587;-48
2023/10/31 10:54:16;;;;;;;0.00;0.00;;;;;;;13.39;63.90;99249.16;15653216;28;20421;-50
2023/10/31 11:01:53;;;;;;;0.13;0.13;;;;;;;13.87;61.39;99236.28;15678464;28;20056;-46
2023/10/31 11:09:27;;;;;;;0.00;0.00;;;;;;;13.55;61.47;99194.19;15651931;28;20044;-51
2023/10/31 11:17:03;;;;;;;0.00;0.00;;;;;;;13.63;61.68;99239.50;15668731;23;20091;31
2023/10/31 11:24:38;;;;;;;0.00;0.00;;;;;;;13.67;62.55;99248.69;15550553;28;20477;-50
2023/10/31 11:32:12;;;;;;;0.00;0.00;;;;;;;13.49;63.05;99279.63;15572235;28;20052;-50
2023/10/31 11:40:18;;;;;;;0.00;0.00;;;;;;;13.24;63.57;99284.91;15610590;28;20073;-48
2023/10/31 11:47:52;;;;;;;0.00;0.00;;;;;;;12.91;66.60;99297.66;15601776;28;20438;-51
2023/10/31 11:55:28;;;;;;;0.00;0.00;;;;;;;12.90;67.43;99328.34;15590291;28;20581;-51
2023/10/31 12:03:02;;;;;;;0.00;0.00;;;;;;;12.77;67.42;99294.63;15613095;28;20053;-51
2023/10/31 12:10:37;;;;;;;0.10;0.10;;;;;;;12.89;66.89;99334.00;15594424;28;20136;-51
2023/10/31 12:18:11;;;;;;;0.13;0.13;;;;;;;12.30;66.95;99332.22;15610986;28;20219;-50
2023/10/31 12:25:49;;;;;;;0.22;0.10;;;;;;;12.75;67.22;99349.81;15593216;28;20092;-52
2023/10/31 12:33:27;;;;;;;0.00;0.00;;;;;;;12.52;64.73;99348.28;15583217;28;20052;-51
2023/10/31 12:41:01;;;;;;;0.00;0.00;;;;;;;12.62;66.02;99356.44;15610973;28;20124;-51
2023/10/31 12:48:39;;;;;;;0.08;0.00;;;;;;;12.52;65.34;99370.63;15608398;28;20132;-49
2023/10/31 12:56:40;;;;;;;0.00;0.00;;;;;;;12.64;64.15;99386.63;15608328;28;20051;-52
2023/10/31 13:04:25;;;;;;;0.00;0.00;;;;;;;12.47;63.84;99389.41;15611897;28;20093;-51
2023/10/31 13:12:01;;;;;;;0.00;0.00;;;;;;;12.82;64.09;99403.44;15598015;28;20053;-52
2023/10/31 13:19:35;;;;;;;0.00;0.00;;;;;;;12.40;66.02;99437.28;15607018;28;20034;-55
2023/10/31 13:27:16;;;;;;;0.00;0.00;;;;;;;12.39;66.71;99448.28;15624471;28;20038;-54
2023/10/31 13:34:49;;;;;;;0.10;0.10;;;;;;;12.25;66.44;99445.97;15596773;28;20452;-52
2023/10/31 13:42:25;;;;;;;6.20;1.65;;;;;;;12.28;66.34;99435.78;15618997;28;20067;-53
2023/10/31 13:49:59;;;;;;;0.00;0.00;;;;;;;12.34;65.91;99435.56;15621472;28;20522;-51
2023/10/31 13:57:34;;;;;;;0.00;0.00;;;;;;;12.40;67.14;99455.28;15623539;28;20589;-51
2023/10/31 14:05:08;;;;;;;0.05;0.05;;;;;;;12.15;69.49;99486.22;15610987;28;20046;-60
2023/10/31 14:12:42;;;;;;;0.00;0.00;;;;;;;11.83;69.71;99486.09;15618627;28;20045;-51
2023/10/31 14:20:16;;;;;;;0.00;0.00;;;;;;;11.79;70.28;99509.13;15595761;28;20256;-51
2023/10/31 14:27:50;;;;;;;0.00;0.00;;;;;;;11.74;71.00;99522.50;15618020;28;20049;-50
2023/10/31 14:35:24;;;;;;;0.00;0.00;;;;;;;11.72;73.91;99538.06;15610189;28;20038;-50
2023/10/31 14:42:59;;;;;;;0.00;0.00;;;;;;;11.56;75.89;99569.25;15616271;28;20095;-51
2023/10/31 14:50:33;;;;;;;0.30;0.30;;;;;;;11.30;78.16;99596.81;15601548;28;20288;-50
2023/10/31 14:58:08;;;;;;;0.00;0.00;;;;;;;10.87;81.52;99628.53;15613078;28;20045;-48
2023/10/31 15:05:43;;;;;;;0.00;0.00;;;;;;;10.68;83.46;99640.50;15609020;28;20059;-49
2023/10/31 15:13:18;;;;;;;0.00;0.00;;;;;;;10.79;83.67;99653.06;15614266;28;20128;-51
2023/10/31 15:20:54;;;;;;;0.00;0.00;;;;;;;10.77;83.25;99665.06;15611924;28;20141;-49
2023/10/31 15:28:30;;;;;;;0.08;0.08;;;;;;;11.09;82.92;99668.13;15612833;28;20049;-52
2023/10/31 15:36:04;;;;;;;0.00;0.00;;;;;;;11.01;83.36;99673.91;15602105;28;20049;-52
2023/10/31 15:43:39;;;;;;;0.00;0.00;;;;;;;11.15;82.27;99662.63;15610767;28;20051;-52
2023/10/31 15:51:12;;;;;;;0.00;0.00;;;;;;;10.66;84.30;99672.94;15590727;28;20060;-54
2023/10/31 15:58:48;;;;;;;0.00;0.00;;;;;;;10.62;84.28;99682.50;15598880;28;20041;-62
2023/10/31 16:06:21;;;;;;;3.35;1.73;;;;;;;11.13;82.54;99685.41;15607440;28;20052;-52
2023/10/31 16:13:57;;;;;;;0.00;0.00;;;;;;;10.86;83.45;99703.91;15586039;28;20402;-55
2023/10/31 16:21:31;;;;;;;0.22;0.20;;;;;;;11.14;82.26;99668.22;15577177;28;20046;-53
2023/10/31 16:29:13;;;;;;;;;;;;;;;10.78;82.98;99718.53;15568562;28;20041;-52
2023/10/31 16:36:50;;;;;;;0.57;0.35;;;;;;;10.85;82.80;99738.00;15588597;28;20347;-50
2023/10/31 16:44:25;;;;;;;0.00;0.00;;;;;;;10.46;83.93;99745.75;15572288;28;20048;-53
2023/10/31 16:51:58;;;;;;;0.30;0.30;;;;;;;10.83;82.48;99758.09;15637055;28;20053;-51
2023/10/31 16:59:36;;;;;;;0.00;0.00;;;;;;;11.00;80.96;99750.94;15625270;28;20042;-51
2023/10/31 17:07:09;;;;;;;1.13;0.80;;;;;;;10.70;80.55;99753.78;15570707;28;20048;-54
2023/10/31 17:14:46;;;;;;;0.20;0.20;;;;;;;10.66;81.13;99749.94;15598913;28;20107;-53
2023/10/31 17:22:20;;;;;;;0.00;0.00;;;;;;;10.82;80.02;99759.13;15599755;28;20068;-53
2023/10/31 17:29:54;;;;;;;0.00;0.00;;;;;;;10.17;82.11;99781.53;15592929;28;20576;-53
2023/10/31 17:37:28;;;;;;;0.00;0.00;;;;;;;10.29;82.41;99797.66;15590925;28;20046;-53
2023/10/31 17:45:02;;;;;;;;;;;;;;;10.08;82.98;99799.81;15602586;28;20052;-54
2023/10/31 17:52:36;;;;;;;0.00;0.00;;;;;;;10.48;81.47;99808.03;15598521;28;19932;-53
2023/10/31 18:00:12;;;;;;;0.00;0.00;;;;;;;10.65;80.50;99820.78;15591627;28;20049;-51
2023/10/31 18:07:48;;;;;;;0.55;0.55;;;;;;;10.72;80.11;99838.41;15608155;28;20050;-51
2023/10/31 18:15:22;;;;;;;0.00;0.00;;;;;;;10.26;80.93;99843.69;15602421;28;20140;-50
2023/10/31 18:22:55;;;;;;;0.45;0.20;;;;;;;10.09;80.86;99852.38;15576271;28;20061;-54
2023/10/31 18:30:30;;;;;;;0.00;0.00;;;;;;;10.46;79.85;99865.69;15608634;28;20072;-52
2023/10/31 18:38:09;;;;;;;0.00;0.00;;;;;;;10.49;79.11;99883.97;15609373;28;20735;-49
2023/10/31 18:45:43;;;;;;;0.00;0.00;;;;;;;10.56;78.74;99895.44;15603207;28;20363;-50
2023/10/31 18:53:16;;;;;;;0.00;0.00;;;;;;;10.48;78.64;99919.91;15608115;28;20144;-54
2023/10/31 19:00:51;;;;;;;0.10;0.10;;;;;;;10.37;79.16;99928.75;15685289;23;20045;-50
2023/10/31 19:08:26;;;;;;;0.32;0.32;;;;;;;10.59;77.91;99935.25;15737279;28;20064;-51
2023/10/31 19:16:01;;;;;;;0.00;0.00;;;;;;;10.61;77.58;99959.16;15719716;28;20041;-52
2023/10/31 19:23:35;;;;;;;0.03;0.03;;;;;;;10.52;76.86;99979.31;15721551;28;20052;-50
2023/10/31 19:31:10;;;;;;;0.80;0.28;;;;;;;10.12;76.33;99987.88;15709934;28;20067;-52
2023/10/31 19:38:44;;;;;;;0.25;0.10;;;;;;;10.28;73.71;99997.19;15714214;28;20041;-48
2023/10/31 19:46:20;;;;;;;0.13;0.13;;;;;;;9.64;73.95;100034.16;15716859;28;20040;-50
2023/10/31 19:53:53;;;;;;;0.00;0.00;;;;;;;9.58;72.92;100027.00;15719972;28;20406;-48
2023/10/31 20:01:28;;;;;;;0.00;0.00;;;;;;;9.56;72.45;100048.69;15713636;28;20397;-49
2023/10/31 20:09:05;;;;;;;0.00;0.00;;;;;;;9.29;69.84;100049.94;15715873;28;20052;-50
2023/10/31 20:16:40;;;;;;;0.00;0.00;;;;;;;9.20;69.35;100066.28;15713086;28;20398;-53
2023/10/31 20:24:13;;;;;;;0.00;0.00;;;;;;;8.70;70.50;100073.41;15724629;28;20079;-50
2023/10/31 20:31:49;;;;;;;0.00;0.00;;;;;;;9.01;68.99;100074.47;15702040;28;20048;-48
2023/10/31 20:39:23;;;;;;;0.05;0.05;;;;;;;8.90;70.96;100086.66;15702629;28;20131;-50
2023/10/31 20:46:57;;;;;;;0.00;0.00;;;;;;;9.20;70.28;100101.09;15708813;28;20036;-51
2023/10/31 20:54:34;;;;;;;0.00;0.00;;;;;;;8.85;72.25;100108.72;15697936;28;20048;-53
2023/10/31 21:02:12;;;;;;;0.00;0.00;;;;;;;9.11;71.28;100118.44;15715583;28;20117;-48
2023/10/31 21:09:45;;;;;;;0.10;0.10;;;;;;;8.76;71.74;100123.38;15723038;28;20412;-49
2023/10/31 21:17:20;;;;;;;0.20;0.20;;;;;;;8.54;72.20;100138.09;15715776;28;20040;-50
2023/10/31 21:24:54;;;;;;;0.10;0.10;;;;;;;8.52;71.09;100143.66;15709374;28;20049;-51
2023/10/31 21:32:31;;;;;;;0.08;0.08;;;;;;;8.15;70.26;100145.97;15724299;28;20124;-48
2023/10/31 21:40:06;;;;;;;0.00;0.00;;;;;;;8.21;68.36;100156.84;15725814;28;20460;-48
2023/10/31 21:47:42;;;;;;;0.00;0.00;;;;;;;8.06;66.02;100159.78;15721316;28;20036;-48
2023/10/31 21:55:18;;;;;;;0.00;0.00;;;;;;;8.03;66.98;100160.22;15723415;28;20057;-49
2023/10/31 22:02:53;;;;;;;0.00;0.00;;;;;;;8.01;67.45;100180.94;15722666;28;20049;-50
2023/10/31 22:10:26;;;;;;;0.00;0.00;;;;;;;7.97;65.66;100188.56;15717994;28;20128;-48
2023/10/31 22:18:00;;;;;;;0.00;0.00;;;;;;;7.80;66.82;100174.81;15718334;28;20056;-54
2023/10/31 22:25:34;;;;;;;0.00;0.00;;;;;;;8.68;66.37;100203.91;15729306;28;20037;-48
2023/10/31 22:33:08;;;;;;;0.00;0.00;;;;;;;8.67;67.03;100211.09;15736372;28;20056;-49
2023/10/31 22:40:42;;;;;;;0.00;0.00;;;;;;;8.88;68.12;100225.22;15721697;28;20053;-48
2023/10/31 22:48:17;;;;;;;0.00;0.00;;;;;;;8.97;67.70;100239.19;15724353;28;20041;-52
2023/10/31 22:55:50;;;;;;;0.00;0.00;;;;;;;8.72;68.05;100258.63;15708415;28;20047;-50
2023/10/31 23:03:25;;;;;;;0.00;0.00;;;;;;;8.40;68.20;100261.16;15719257;28;20133;-48
2023/10/31 23:11:02;;;;;;;0.00;0.00;;;;;;;8.83;66.53;100257.16;15714399;28;20448;-50
2023/10/31 23:18:37;;;;;;;0.00;0.00;;;;;;;8.73;67.37;100257.59;15716577;28;20074;-47
2023/10/31 23:26:10;;;;;;;0.00;0.00;;;;;;;8.99;65.39;100261.22;15722190;28;20112;-50
2023/10/31 23:33:50;;;;;;;0.00;0.00;;;;;;;9.07;64.21;100261.81;15722408;28;20049;-48
2023/10/31 23:41:23;;;;;;;0.00;0.00;;;;;;;9.27;64.85;100264.38;15721180;28;20468;-48
2023/10/31 23:48:57;;;;;;;0.00;0.00;;;;;;;8.90;64.99;100276.69;15716594;28;20152;-46
2023/10/31 23:56:31;;;;;;;0.00;0.00;;;;;;;8.93;65.48;100277.09;15715457;28;20037;-46
